Time;durP1;ratioP1;P1;durP2;ratioP2;P2;SDS_P1;SDS_P2;PMS_P1;PMS_P2;Temp;Humidity;BMP_temperature;BMP_pressure;BME280_temperature;BME280_humidity;BME280_pressure;Samples;Min_cycle;Max_cycle;Signal;HPM_P1;HPM_P2
2023/03/05 00:00:07;;;;;;;32.28;16.77;;;;;;;;;;5076395;28;20044;-69
2023/03/05 00:02:53;;;;;;;37.63;17.02;;;;;;;;;;5075698;28;20091;-70
2023/03/05 00:05:39;;;;;;;40.00;18.48;;;;;;;;;;5075513;28;20159;-70
2023/03/05 00:08:25;;;;;;;38.35;17.90;;;;;;;;;;5059639;28;20020;-68
2023/03/05 00:11:11;;;;;;;40.88;17.77;;;;;;;;;;5074039;28;20047;-70
2023/03/05 00:13:57;;;;;;;42.22;18.27;;;;;;;;;;5060121;28;20124;-69
2023/03/05 00:16:43;;;;;;;39.22;19.30;;;;;;;;;;5074323;28;20024;-69
2023/03/05 00:19:28;;;;;;;41.47;18.92;;;;;;;;;;5075661;28;20025;-69
2023/03/05 00:22:14;;;;;;;36.60;18.25;;;;;;;;;;5057880;28;20083;-69
2023/03/05 00:24:59;;;;;;;39.15;18.80;;;;;;;;;;5075126;28;20025;-69
2023/03/05 00:27:45;;;;;;;39.88;19.42;;;;;;;;;;5075239;28;20021;-69
2023/03/05 00:30:31;;;;;;;45.63;20.63;;;;;;;;;;5074884;28;20008;-68
2023/03/05 00:33:16;;;;;;;44.88;20.88;;;;;;;;;;5074561;28;20039;-69
2023/03/05 00:36:04;;;;;;;41.60;20.50;;;;;;;;;;5073366;28;20104;-69
2023/03/05 00:38:50;;;;;;;40.45;18.27;;;;;;;;;;5074597;28;20024;-69
2023/03/05 00:41:35;;;;;;;41.60;19.63;;;;;;;;;;5074779;28;20456;-69
2023/03/05 00:44:21;;;;;;;42.35;19.63;;;;;;;;;;5074902;28;20466;-70
2023/03/05 00:47:07;;;;;;;40.20;20.23;;;;;;;;;;5072900;28;20451;-69
2023/03/05 00:49:52;;;;;;;41.95;20.38;;;;;;;;;;5074453;28;20032;-70
2023/03/05 00:52:38;;;;;;;44.95;20.08;;;;;;;;;;5074545;28;20032;-70
2023/03/05 00:55:23;;;;;;;48.35;21.27;;;;;;;;;;5058677;28;20020;-70
2023/03/05 00:58:09;;;;;;;45.08;20.65;;;;;;;;;;5072983;28;20035;-69
2023/03/05 01:00:59;;;;;;;43.08;19.67;;;;;;;;;;5058889;28;20052;-69
2023/03/05 01:03:44;;;;;;;42.35;20.73;;;;;;;;;;5074975;28;20024;-70
2023/03/05 01:06:30;;;;;;;45.53;21.83;;;;;;;;;;5059723;28;20356;-69
2023/03/05 01:09:16;;;;;;;44.60;20.48;;;;;;;;;;5072337;28;20024;-68
2023/03/05 01:12:01;;;;;;;45.35;21.15;;;;;;;;;;5072688;28;20407;-69
2023/03/05 01:14:47;;;;;;;52.08;21.25;;;;;;;;;;5072682;28;20024;-69
2023/03/05 01:17:33;;;;;;;48.08;21.75;;;;;;;;;;5072432;28;20027;-70
2023/03/05 01:20:20;;;;;;;45.65;20.77;;;;;;;;;;5073113;28;20520;-71
2023/03/05 01:23:05;;;;;;;45.60;21.75;;;;;;;;;;5073791;28;20032;-70
2023/03/05 01:25:54;;;;;;;49.05;22.20;;;;;;;;;;5073987;28;20021;-70
2023/03/05 01:28:40;;;;;;;47.13;21.80;;;;;;;;;;5058310;28;20107;-69
2023/03/05 01:31:26;;;;;;;47.72;22.15;;;;;;;;;;5072188;28;20021;-69
2023/03/05 01:34:12;;;;;;;46.58;22.25;;;;;;;;;;5075588;28;20417;-70
2023/03/05 01:36:58;;;;;;;50.25;22.27;;;;;;;;;;5076654;28;20445;-70
2023/03/05 01:39:43;;;;;;;47.97;21.40;;;;;;;;;;5062902;28;20048;-69
2023/03/05 01:42:29;;;;;;;50.17;21.33;;;;;;;;;;5062700;28;20035;-70
2023/03/05 01:45:15;;;;;;;43.03;20.50;;;;;;;;;;5075929;28;20146;-69
2023/03/05 01:48:01;;;;;;;48.20;20.90;;;;;;;;;;5077518;28;20075;-69
2023/03/05 01:50:47;;;;;;;48.15;21.25;;;;;;;;;;5062371;28;20075;-70
2023/03/05 01:53:32;;;;;;;54.05;21.38;;;;;;;;;;5075932;28;20024;-70
2023/03/05 01:56:18;;;;;;;43.08;20.58;;;;;;;;;;5076738;28;20058;-69
2023/03/05 01:59:04;;;;;;;46.88;20.58;;;;;;;;;;5062755;28;20024;-70
2023/03/05 02:01:52;;;;;;;44.25;21.20;;;;;;;;;;5060884;28;20189;-69
2023/03/05 02:04:43;;;;;;;49.25;21.80;;;;;;;;;;5075344;28;20031;-69
2023/03/05 02:07:29;;;;;;;50.28;22.15;;;;;;;;;;5077562;28;20055;-69
2023/03/05 02:10:19;;;;;;;48.53;22.83;;;;;;;;;;5077777;28;20376;-70
2023/03/05 02:13:09;;;;;;;49.30;22.55;;;;;;;;;;5076984;28;20020;-72
2023/03/05 02:15:56;;;;;;;48.95;21.98;;;;;;;;;;5077244;28;20039;-68
2023/03/05 02:18:42;;;;;;;48.83;22.77;;;;;;;;;;5062058;28;20020;-69
2023/03/05 02:21:35;;;;;;;52.95;23.08;;;;;;;;;;5076936;28;20020;-68
2023/03/05 02:24:36;;;;;;;46.25;21.80;;;;;;;;;;5061872;28;20416;-69
2023/03/05 02:27:23;;;;;;;49.53;22.73;;;;;;;;;;5077972;28;20020;-69
2023/03/05 02:30:09;;;;;;;49.33;23.60;;;;;;;;;;5076835;28;20020;-70
2023/03/05 02:32:55;;;;;;;52.13;23.00;;;;;;;;;;5077400;28;20035;-70
2023/03/05 02:35:42;;;;;;;45.72;22.05;;;;;;;;;;5062748;28;20028;-70
2023/03/05 02:38:28;;;;;;;51.80;24.05;;;;;;;;;;5077389;28;20100;-70
2023/03/05 02:41:14;;;;;;;58.05;23.15;;;;;;;;;;5062900;28;20020;-69
2023/03/05 02:43:59;;;;;;;49.50;22.70;;;;;;;;;;5077480;28;20056;-70
2023/03/05 02:46:45;;;;;;;56.28;24.58;;;;;;;;;;5075503;28;20108;-70
2023/03/05 02:49:31;;;;;;;49.13;23.95;;;;;;;;;;5076660;28;20024;-70
2023/03/05 02:52:16;;;;;;;52.17;23.80;;;;;;;;;;5076124;28;20028;-70
2023/03/05 02:55:02;;;;;;;52.20;24.88;;;;;;;;;;5076507;28;20020;-69
2023/03/05 02:57:48;;;;;;;56.00;24.17;;;;;;;;;;5076286;28;20432;-69
2023/03/05 03:00:33;;;;;;;50.47;22.70;;;;;;;;;;5076044;28;20064;-69
2023/03/05 03:03:19;;;;;;;47.00;22.77;;;;;;;;;;5075739;28;20376;-69
2023/03/05 03:06:05;;;;;;;53.72;23.58;;;;;;;;;;5061428;28;20024;-68
2023/03/05 03:08:50;;;;;;;50.90;24.50;;;;;;;;;;5077040;28;20040;-69
2023/03/05 03:11:36;;;;;;;49.50;22.83;;;;;;;;;;5076110;28;20100;-69
2023/03/05 03:14:21;;;;;;;52.22;23.48;;;;;;;;;;5076316;28;20031;-68
2023/03/05 03:17:08;;;;;;;53.30;23.88;;;;;;;;;;5060345;28;20403;-70
2023/03/05 03:19:53;;;;;;;47.90;22.45;;;;;;;;;;5075995;28;20024;-70
2023/03/05 03:22:40;;;;;;;53.83;24.55;;;;;;;;;;5060956;28;20052;-69
2023/03/05 03:25:25;;;;;;;49.30;22.83;;;;;;;;;;5060911;28;20024;-69
2023/03/05 03:28:11;;;;;;;54.22;23.85;;;;;;;;;;5075621;28;20380;-68
2023/03/05 03:30:56;;;;;;;48.22;22.30;;;;;;;;;;5075842;28;20147;-69
2023/03/05 03:33:42;;;;;;;45.60;22.58;;;;;;;;;;5076045;28;20024;-69
2023/03/05 03:36:28;;;;;;;51.33;23.45;;;;;;;;;;5075218;28;20031;-70
2023/03/05 03:39:14;;;;;;;53.67;23.63;;;;;;;;;;5075675;28;20017;-69
2023/03/05 03:41:59;;;;;;;50.85;23.05;;;;;;;;;;5060670;28;20024;-71
2023/03/05 03:44:45;;;;;;;52.20;24.27;;;;;;;;;;5060786;28;20024;-70
2023/03/05 03:47:31;;;;;;;54.28;23.55;;;;;;;;;;5075241;28;20023;-72
2023/03/05 03:50:17;;;;;;;56.50;24.55;;;;;;;;;;5075255;28;20027;-69
2023/03/05 03:53:02;;;;;;;50.08;23.83;;;;;;;;;;5075170;28;20016;-70
2023/03/05 03:55:48;;;;;;;50.08;23.70;;;;;;;;;;5074933;28;20448;-70
2023/03/05 03:58:33;;;;;;;46.47;22.40;;;;;;;;;;5075160;28;20039;-69
2023/03/05 04:01:20;;;;;;;50.88;23.27;;;;;;;;;;5074978;28;20063;-69
2023/03/05 04:04:06;;;;;;;49.25;23.25;;;;;;;;;;5076677;28;20024;-69
2023/03/05 04:06:51;;;;;;;56.83;24.70;;;;;;;;;;5083711;28;20040;-69
2023/03/05 04:09:37;;;;;;;51.22;24.10;;;;;;;;;;5078255;28;20016;-68
2023/03/05 04:12:23;;;;;;;49.15;22.48;;;;;;;;;;5076627;28;20031;-70
2023/03/05 04:15:09;;;;;;;62.15;24.63;;;;;;;;;;5075631;28;20465;-69
2023/03/05 04:17:55;;;;;;;54.28;24.70;;;;;;;;;;5075488;28;20024;-69
2023/03/05 04:20:40;;;;;;;50.45;23.95;;;;;;;;;;5075850;28;20117;-69
2023/03/05 04:23:26;;;;;;;51.63;24.08;;;;;;;;;;5075366;28;20020;-70
2023/03/05 04:26:11;;;;;;;51.95;23.10;;;;;;;;;;5075150;28;20041;-70
2023/03/05 04:28:57;;;;;;;53.65;24.77;;;;;;;;;;5060751;28;20020;-70
2023/03/05 04:31:42;;;;;;;48.53;23.17;;;;;;;;;;5074851;28;20472;-70
2023/03/05 04:34:28;;;;;;;54.75;25.15;;;;;;;;;;5080147;28;20052;-69
2023/03/05 04:37:14;;;;;;;52.00;25.10;;;;;;;;;;5079321;28;20041;-70
2023/03/05 04:39:59;;;;;;;48.83;23.83;;;;;;;;;;5061572;28;20563;-68
2023/03/05 04:42:45;;;;;;;51.25;24.27;;;;;;;;;;5074857;28;20021;-70
2023/03/05 04:45:31;;;;;;;55.50;24.10;;;;;;;;;;5059842;28;20017;-69
2023/03/05 04:48:17;;;;;;;48.47;22.98;;;;;;;;;;5074698;28;20047;-70
2023/03/05 04:51:03;;;;;;;47.75;23.83;;;;;;;;;;5060510;28;20024;-70
2023/03/05 04:53:48;;;;;;;56.72;25.45;;;;;;;;;;5075128;28;20029;-69
2023/03/05 04:56:34;;;;;;;55.75;24.15;;;;;;;;;;5074663;28;20158;-69
2023/03/05 04:59:20;;;;;;;56.28;23.80;;;;;;;;;;5074688;28;20071;-69
2023/03/05 05:02:05;;;;;;;51.50;24.90;;;;;;;;;;5074640;28;20449;-72
2023/03/05 05:04:52;;;;;;;51.70;24.17;;;;;;;;;;5060591;28;20054;-69
2023/03/05 05:07:37;;;;;;;53.30;24.10;;;;;;;;;;5074213;28;20021;-68
2023/03/05 05:10:24;;;;;;;50.80;23.77;;;;;;;;;;5073666;28;20443;-68
2023/03/05 05:13:09;;;;;;;52.22;24.05;;;;;;;;;;5074316;28;20025;-70
2023/03/05 05:15:55;;;;;;;57.25;25.73;;;;;;;;;;5073975;28;20021;-70
2023/03/05 05:18:41;;;;;;;52.53;22.42;;;;;;;;;;5074007;28;20020;-70
2023/03/05 05:21:26;;;;;;;57.05;24.42;;;;;;;;;;5074377;28;20078;-69
2023/03/05 05:24:12;;;;;;;56.85;24.67;;;;;;;;;;5075808;28;20487;-70
2023/03/05 05:26:57;;;;;;;53.45;24.00;;;;;;;;;;5073704;28;20039;-68
2023/03/05 05:29:45;;;;;;;55.80;24.30;;;;;;;;;;5073988;28;20027;-71
2023/03/05 05:32:30;;;;;;;56.00;23.38;;;;;;;;;;5073843;28;20024;-69
2023/03/05 05:35:16;;;;;;;51.33;24.50;;;;;;;;;;5073648;28;20052;-70
2023/03/05 05:38:01;;;;;;;54.40;24.67;;;;;;;;;;5079933;28;20020;-70
2023/03/05 05:40:47;;;;;;;54.47;25.17;;;;;;;;;;5076432;28;20024;-69
2023/03/05 05:43:33;;;;;;;50.75;24.70;;;;;;;;;;5058716;28;20020;-70
2023/03/05 05:46:19;;;;;;;56.47;24.65;;;;;;;;;;5060059;28;20021;-69
2023/03/05 05:49:05;;;;;;;51.40;24.70;;;;;;;;;;5058971;28;20322;-70
2023/03/05 05:51:50;;;;;;;51.97;23.48;;;;;;;;;;5073305;28;20036;-70
2023/03/05 05:54:36;;;;;;;57.33;25.00;;;;;;;;;;5072962;28;20016;-71
2023/03/05 05:57:23;;;;;;;55.60;24.75;;;;;;;;;;5073713;28;20020;-71
2023/03/05 06:00:10;;;;;;;54.20;24.02;;;;;;;;;;5073714;28;20048;-70
2023/03/05 06:02:56;;;;;;;52.25;24.48;;;;;;;;;;5073622;28;20027;-70
2023/03/05 06:05:42;;;;;;;51.42;23.77;;;;;;;;;;5073831;28;20043;-71
2023/03/05 06:08:27;;;;;;;49.50;23.90;;;;;;;;;;5073721;28;20020;-70
2023/03/05 06:11:13;;;;;;;50.58;23.45;;;;;;;;;;5073609;28;20357;-71
2023/03/05 06:14:01;;;;;;;48.50;23.90;;;;;;;;;;5074683;28;20028;-71
2023/03/05 06:16:47;;;;;;;48.08;23.13;;;;;;;;;;5073317;28;20025;-71
2023/03/05 06:19:32;;;;;;;49.45;22.70;;;;;;;;;;5073937;28;20026;-70
2023/03/05 06:22:18;;;;;;;46.45;22.45;;;;;;;;;;5061459;28;20022;-69
2023/03/05 06:25:04;;;;;;;49.22;22.08;;;;;;;;;;5076479;28;20468;-70
2023/03/05 06:27:50;;;;;;;47.33;21.77;;;;;;;;;;5077342;28;20108;-70
2023/03/05 06:30:35;;;;;;;45.45;21.90;;;;;;;;;;5076895;28;20111;-71
2023/03/05 06:33:21;;;;;;;48.63;21.77;;;;;;;;;;5076080;28;20024;-70
2023/03/05 06:36:11;;;;;;;46.70;21.45;;;;;;;;;;5076158;28;20095;-71
2023/03/05 06:38:57;;;;;;;45.75;22.52;;;;;;;;;;5076770;28;20017;-71
2023/03/05 06:41:43;;;;;;;46.05;21.10;;;;;;;;;;5076781;28;20425;-68
2023/03/05 06:44:29;;;;;;;49.45;22.88;;;;;;;;;;5077149;28;20028;-68
2023/03/05 06:47:14;;;;;;;47.22;22.08;;;;;;;;;;5077057;28;20020;-69
2023/03/05 06:50:00;;;;;;;47.47;22.33;;;;;;;;;;5076999;28;20058;-71
2023/03/05 06:52:47;;;;;;;46.20;21.98;;;;;;;;;;5076486;28;20027;-71
2023/03/05 06:55:38;;;;;;;40.38;21.05;;;;;;;;;;5078307;28;20025;-68
2023/03/05 06:58:24;;;;;;;45.08;21.05;;;;;;;;;;5062210;28;20437;-69
2023/03/05 07:01:09;;;;;;;44.63;21.77;;;;;;;;;;5076686;28;20063;-70
2023/03/05 07:03:57;;;;;;;52.95;23.15;;;;;;;;;;5076244;28;20060;-69
2023/03/05 07:06:43;;;;;;;45.80;22.65;;;;;;;;;;5076713;28;20481;-69
2023/03/05 07:09:29;;;;;;;47.88;24.27;;;;;;;;;;5076544;28;20033;-69
2023/03/05 07:12:15;;;;;;;45.55;23.52;;;;;;;;;;5062050;28;20103;-70
2023/03/05 07:15:01;;;;;;;54.28;24.88;;;;;;;;;;5076165;28;20089;-71
2023/03/05 07:17:46;;;;;;;51.63;24.10;;;;;;;;;;5076356;28;20020;-72
2023/03/05 07:20:35;;;;;;;49.30;23.42;;;;;;;;;;5076390;28;20024;-69
2023/03/05 07:23:21;;;;;;;50.47;24.27;;;;;;;;;;5076114;28;20055;-70
2023/03/05 07:26:07;;;;;;;54.20;25.30;;;;;;;;;;5076397;28;20023;-69
2023/03/05 07:28:53;;;;;;;53.65;24.88;;;;;;;;;;5060085;28;20017;-70
2023/03/05 07:31:38;;;;;;;51.05;23.95;;;;;;;;;;5061199;28;20080;-70
2023/03/05 07:34:24;;;;;;;47.78;25.00;;;;;;;;;;5061786;28;20019;-70
2023/03/05 07:37:09;;;;;;;52.25;24.20;;;;;;;;;;5075776;28;20013;-71
2023/03/05 07:39:55;;;;;;;53.22;24.13;;;;;;;;;;5062380;28;20082;-71
2023/03/05 07:42:41;;;;;;;50.55;25.42;;;;;;;;;;5075835;28;20052;-71
2023/03/05 07:45:26;;;;;;;50.63;25.13;;;;;;;;;;5076118;28;20108;-70
2023/03/05 07:48:14;;;;;;;50.45;23.73;;;;;;;;;;5075519;28;20028;-71
2023/03/05 07:51:03;;;;;;;50.00;23.50;;;;;;;;;;5076397;28;20044;-70
2023/03/05 07:53:49;;;;;;;50.92;24.27;;;;;;;;;;5078135;28;20432;-69
2023/03/05 07:56:35;;;;;;;51.65;24.02;;;;;;;;;;5076989;28;20031;-71
2023/03/05 07:59:20;;;;;;;48.03;24.27;;;;;;;;;;5076634;28;20013;-69
2023/03/05 08:02:06;;;;;;;51.67;24.83;;;;;;;;;;5075085;28;20036;-71
2023/03/05 08:04:52;;;;;;;54.78;25.00;;;;;;;;;;5061039;28;20051;-70
2023/03/05 08:07:37;;;;;;;53.25;24.10;;;;;;;;;;5075860;28;20051;-68
2023/03/05 08:10:23;;;;;;;51.55;24.50;;;;;;;;;;5075787;28;20437;-69
2023/03/05 08:13:08;;;;;;;51.20;24.95;;;;;;;;;;5075471;28;20036;-71
2023/03/05 08:15:54;;;;;;;52.80;26.10;;;;;;;;;;5075220;28;20349;-68
2023/03/05 08:18:40;;;;;;;43.97;23.65;;;;;;;;;;5060892;28;20024;-68
2023/03/05 08:21:32;;;;;;;48.97;25.25;;;;;;;;;;5075235;28;20437;-68
2023/03/05 08:24:17;;;;;;;54.33;24.35;;;;;;;;;;5075356;28;20031;-70
2023/03/05 08:27:03;;;;;;;49.60;24.70;;;;;;;;;;5059985;28;20024;-71
2023/03/05 08:29:48;;;;;;;47.40;24.42;;;;;;;;;;5074877;28;20024;-69
2023/03/05 08:32:34;;;;;;;47.42;23.88;;;;;;;;;;5074050;28;20078;-71
2023/03/05 08:35:20;;;;;;;50.00;24.90;;;;;;;;;;5074943;28;20118;-70
2023/03/05 08:38:05;;;;;;;48.63;24.13;;;;;;;;;;5075663;28;20043;-69
2023/03/05 08:40:51;;;;;;;55.10;25.27;;;;;;;;;;5074593;28;20059;-70
2023/03/05 08:43:36;;;;;;;44.35;23.20;;;;;;;;;;5072878;28;20194;-69
2023/03/05 08:46:22;;;;;;;47.75;25.63;;;;;;;;;;5074746;28;20021;-70
2023/03/05 08:49:08;;;;;;;45.05;24.20;;;;;;;;;;5074900;28;20032;-70
2023/03/05 08:51:54;;;;;;;46.60;24.27;;;;;;;;;;5074831;28;20099;-72
2023/03/05 08:54:39;;;;;;;43.03;24.60;;;;;;;;;;5074032;28;20016;-71
2023/03/05 08:57:25;;;;;;;48.75;25.02;;;;;;;;;;5074401;28;20020;-71
2023/03/05 09:00:11;;;;;;;47.53;26.08;;;;;;;;;;5074160;28;20472;-70
2023/03/05 09:02:57;;;;;;;47.58;25.33;;;;;;;;;;5059932;28;20364;-71
2023/03/05 09:05:44;;;;;;;48.55;24.83;;;;;;;;;;5074516;28;20064;-70
2023/03/05 09:08:29;;;;;;;48.13;26.40;;;;;;;;;;5074621;28;20106;-70
2023/03/05 09:11:15;;;;;;;49.03;26.40;;;;;;;;;;5074428;28;20060;-70
2023/03/05 09:14:04;;;;;;;50.45;27.05;;;;;;;;;;5074379;28;20467;-70
2023/03/05 09:16:50;;;;;;;53.55;27.10;;;;;;;;;;5074339;28;20032;-72
2023/03/05 09:19:35;;;;;;;48.58;24.88;;;;;;;;;;5074063;28;20385;-70
2023/03/05 09:22:21;;;;;;;53.33;27.08;;;;;;;;;;5074166;28;20346;-69
2023/03/05 09:25:07;;;;;;;51.58;26.38;;;;;;;;;;5074666;28;20021;-71
2023/03/05 09:27:53;;;;;;;51.00;26.10;;;;;;;;;;5074813;28;20511;-70
2023/03/05 09:30:38;;;;;;;48.53;26.98;;;;;;;;;;5074268;28;20028;-71
2023/03/05 09:33:24;;;;;;;50.45;26.20;;;;;;;;;;5074099;28;20028;-72
2023/03/05 09:36:20;;;;;;;53.50;27.50;;;;;;;;;;5060368;28;20025;-71
2023/03/05 09:39:06;;;;;;;52.83;27.70;;;;;;;;;;5074264;28;20024;-69
2023/03/05 09:42:10;;;;;;;48.45;25.38;;;;;;;;;;5060413;28;20411;-69
2023/03/05 09:44:59;;;;;;;54.38;28.20;;;;;;;;;;5074119;28;20016;-69
2023/03/05 09:47:44;;;;;;;46.33;26.60;;;;;;;;;;5074116;28;20334;-68
2023/03/05 09:50:33;;;;;;;52.83;28.02;;;;;;;;;;5060258;28;20031;-70
2023/03/05 09:53:37;;;;;;;49.00;27.13;;;;;;;;;;5074098;28;20495;-71
2023/03/05 09:56:28;;;;;;;50.47;27.58;;;;;;;;;;5076932;28;20028;-69
2023/03/05 09:59:34;;;;;;;47.92;26.63;;;;;;;;;;5077953;28;20070;-71
2023/03/05 10:02:31;;;;;;;46.63;27.08;;;;;;;;;;5078576;28;20461;-70
2023/03/05 10:05:23;;;;;;;58.17;27.30;;;;;;;;;;5078889;28;20032;-69
2023/03/05 10:08:10;;;;;;;52.45;27.75;;;;;;;;;;5078024;28;20360;-69
2023/03/05 10:10:58;;;;;;;50.63;27.98;;;;;;;;;;5077373;28;20033;-69
2023/03/05 10:13:44;;;;;;;48.83;26.55;;;;;;;;;;5077863;28;20024;-69
2023/03/05 10:16:42;;;;;;;46.85;25.17;;;;;;;;;;5063169;28;20395;-69
2023/03/05 10:19:28;;;;;;;47.72;25.98;;;;;;;;;;5078697;28;20063;-70
2023/03/05 10:22:21;;;;;;;43.90;25.40;;;;;;;;;;5065868;28;20024;-70
2023/03/05 10:25:22;;;;;;;46.60;26.70;;;;;;;;;;5079905;28;20016;-71
2023/03/05 10:28:20;;;;;;;48.60;26.30;;;;;;;;;;5064739;28;20029;-71
2023/03/05 10:31:09;;;;;;;44.95;25.73;;;;;;;;;;5063226;28;20027;-69
2023/03/05 10:34:10;;;;;;;46.63;26.05;;;;;;;;;;5063227;28;20075;-70
2023/03/05 10:37:22;;;;;;;44.78;25.38;;;;;;;;;;5078126;28;20066;-69
2023/03/05 10:40:16;;;;;;;47.90;26.00;;;;;;;;;;5054014;28;20114;-69
2023/03/05 10:43:01;;;;;;;45.50;25.77;;;;;;;;;;5076766;28;20453;-69
2023/03/05 10:45:48;;;;;;;49.63;27.23;;;;;;;;;;5078140;28;20021;-70
2023/03/05 10:48:38;;;;;;;49.55;27.17;;;;;;;;;;5077292;28;20030;-69
2023/03/05 10:51:36;;;;;;;45.33;26.17;;;;;;;;;;5062179;28;20338;-69
2023/03/05 10:54:24;;;;;;;50.25;27.55;;;;;;;;;;5077167;28;20017;-71
2023/03/05 10:57:16;;;;;;;49.47;27.63;;;;;;;;;;5077032;28;20035;-69
2023/03/05 11:00:05;;;;;;;42.00;25.58;;;;;;;;;;5064142;28;20365;-71
2023/03/05 11:02:59;;;;;;;47.50;27.10;;;;;;;;;;5077070;28;20082;-70
2023/03/05 11:05:50;;;;;;;46.90;26.77;;;;;;;;;;5077249;28;20029;-70
2023/03/05 11:08:36;;;;;;;51.38;28.42;;;;;;;;;;5077608;28;20322;-69
2023/03/05 11:11:21;;;;;;;50.15;28.13;;;;;;;;;;5076637;28;20025;-70
2023/03/05 11:14:22;;;;;;;49.15;27.05;;;;;;;;;;5076986;28;20352;-69
2023/03/05 11:17:37;;;;;;;46.30;26.55;;;;;;;;;;5077382;28;20354;-69
2023/03/05 11:20:25;;;;;;;50.85;27.90;;;;;;;;;;5069697;28;20036;-70
2023/03/05 11:23:15;;;;;;;46.88;27.27;;;;;;;;;;5062205;28;20020;-69
2023/03/05 11:26:16;;;;;;;52.30;28.52;;;;;;;;;;5061507;28;20035;-70
2023/03/05 11:29:03;;;;;;;51.15;28.67;;;;;;;;;;5061243;28;20110;-70
2023/03/05 11:31:49;;;;;;;46.78;27.65;;;;;;;;;;5075939;28;20464;-70
2023/03/05 11:34:35;;;;;;;44.85;27.35;;;;;;;;;;5076472;28;20043;-70
2023/03/05 11:37:25;;;;;;;44.88;28.20;;;;;;;;;;5076110;28;20077;-71
2023/03/05 11:40:19;;;;;;;48.50;29.40;;;;;;;;;;5061114;28;20026;-71
2023/03/05 11:43:05;;;;;;;46.53;27.40;;;;;;;;;;5075216;28;20028;-70
2023/03/05 11:45:58;;;;;;;57.90;29.73;;;;;;;;;;5075701;28;20012;-71
2023/03/05 11:48:44;;;;;;;57.28;28.55;;;;;;;;;;5076754;28;20032;-70
2023/03/05 11:51:35;;;;;;;51.55;28.65;;;;;;;;;;5076621;28;20032;-69
2023/03/05 11:54:23;;;;;;;49.60;28.90;;;;;;;;;;5075766;28;20025;-70
2023/03/05 11:57:11;;;;;;;52.13;30.58;;;;;;;;;;5075462;28;20433;-70
2023/03/05 11:59:57;;;;;;;50.83;30.83;;;;;;;;;;5086867;28;20052;-70
2023/03/05 12:02:42;;;;;;;50.08;28.60;;;;;;;;;;5059384;28;20020;-70
2023/03/05 12:05:28;;;;;;;49.78;30.48;;;;;;;;;;5074094;28;20043;-67
2023/03/05 12:08:18;;;;;;;53.45;30.92;;;;;;;;;;5073914;28;20052;-69
2023/03/05 12:11:15;;;;;;;54.60;30.83;;;;;;;;;;5061206;28;20016;-70
2023/03/05 12:14:08;;;;;;;48.65;30.55;;;;;;;;;;5073456;28;20035;-69
2023/03/05 12:17:03;;;;;;;53.38;29.58;;;;;;;;;;5075430;28;20024;-69
2023/03/05 12:19:56;;;;;;;47.22;29.00;;;;;;;;;;5074469;28;20452;-70
2023/03/05 12:22:42;;;;;;;48.30;27.83;;;;;;;;;;5074205;28;20024;-70
2023/03/05 12:25:43;;;;;;;46.80;28.45;;;;;;;;;;5073800;28;20016;-69
2023/03/05 12:28:35;;;;;;;46.08;29.27;;;;;;;;;;5073420;28;20418;-69
2023/03/05 12:31:25;;;;;;;50.25;27.73;;;;;;;;;;5059318;28;20031;-70
2023/03/05 12:34:29;;;;;;;46.25;27.23;;;;;;;;;;5067997;28;20027;-70
2023/03/05 12:37:22;;;;;;;50.88;29.05;;;;;;;;;;5094911;28;20024;-69
2023/03/05 12:40:07;;;;;;;48.13;27.00;;;;;;;;;;5095572;28;20035;-70
2023/03/05 12:43:00;;;;;;;43.20;27.23;;;;;;;;;;5095390;28;20016;-71
2023/03/05 12:45:46;;;;;;;49.85;28.40;;;;;;;;;;5079198;28;20424;-70
2023/03/05 12:48:31;;;;;;;47.25;29.33;;;;;;;;;;5069201;28;20421;-70
2023/03/05 12:51:37;;;;;;;43.45;27.75;;;;;;;;;;5085198;28;20012;-71
2023/03/05 12:54:29;;;;;;;51.70;27.90;;;;;;;;;;5076116;28;20020;-70
2023/03/05 12:57:19;;;;;;;40.05;25.63;;;;;;;;;;5067379;28;20020;-71
2023/03/05 13:00:10;;;;;;;43.65;25.60;;;;;;;;;;5075718;28;20418;-69
2023/03/05 13:02:57;;;;;;;46.78;27.02;;;;;;;;;;5081662;28;20070;-70
2023/03/05 13:05:53;;;;;;;45.35;28.27;;;;;;;;;;5079661;28;20028;-69
2023/03/05 13:08:39;;;;;;;48.00;30.42;;;;;;;;;;5066081;28;20098;-70
2023/03/05 13:11:26;;;;;;;46.50;30.25;;;;;;;;;;5066579;28;20024;-70
2023/03/05 13:14:26;;;;;;;55.33;31.88;;;;;;;;;;5090521;28;20078;-70
2023/03/05 13:17:43;;;;;;;51.28;31.67;;;;;;;;;;5083608;28;20433;-71
2023/03/05 13:20:33;;;;;;;47.40;29.20;;;;;;;;;;5057839;28;20372;-69
2023/03/05 13:23:26;;;;;;;48.05;30.27;;;;;;;;;;5082594;28;20090;-68
2023/03/05 13:26:14;;;;;;;47.67;30.20;;;;;;;;;;5090192;28;20016;-69
2023/03/05 13:29:02;;;;;;;53.70;30.75;;;;;;;;;;5068301;28;20028;-69
2023/03/05 13:31:56;;;;;;;43.15;27.20;;;;;;;;;;5068525;28;20112;-70
2023/03/05 13:34:46;;;;;;;46.85;28.05;;;;;;;;;;5069808;28;20035;-69
2023/03/05 13:37:36;;;;;;;44.08;28.75;;;;;;;;;;5069184;28;20047;-71
2023/03/05 13:40:29;;;;;;;47.90;29.30;;;;;;;;;;5079060;28;20350;-70
2023/03/05 13:43:17;;;;;;;47.60;29.85;;;;;;;;;;5087578;28;20016;-70
2023/03/05 13:46:02;;;;;;;43.42;29.92;;;;;;;;;;5080254;28;20080;-71
2023/03/05 13:48:48;;;;;;;51.30;31.15;;;;;;;;;;5089685;28;20342;-71
2023/03/05 13:51:43;;;;;;;51.25;30.65;;;;;;;;;;5089821;28;20467;-71
2023/03/05 13:54:29;;;;;;;49.47;30.58;;;;;;;;;;5066846;28;20424;-69
2023/03/05 13:57:54;;;;;;;49.25;31.20;;;;;;;;;;5085739;28;20028;-69
2023/03/05 14:00:40;;;;;;;50.35;30.50;;;;;;;;;;4989174;28;20124;-69
2023/03/05 14:03:26;;;;;;;50.03;30.52;;;;;;;;;;5025545;28;20021;-69
2023/03/05 14:06:16;;;;;;;49.53;31.15;;;;;;;;;;5058034;28;20044;-70
2023/03/05 14:09:07;;;;;;;47.95;30.83;;;;;;;;;;5074469;28;20021;-70
2023/03/05 14:11:58;;;;;;;55.08;31.98;;;;;;;;;;5092531;28;20016;-70
2023/03/05 14:14:43;;;;;;;48.30;31.02;;;;;;;;;;5070340;28;20020;-70
2023/03/05 14:17:29;;;;;;;50.78;29.65;;;;;;;;;;5083474;28;20017;-69
2023/03/05 14:20:18;;;;;;;50.10;29.42;;;;;;;;;;5093373;28;20027;-71
2023/03/05 14:23:32;;;;;;;49.75;30.33;;;;;;;;;;5085773;28;20028;-69
2023/03/05 14:26:35;;;;;;;50.65;30.92;;;;;;;;;;5065714;28;20024;-72
2023/03/05 14:29:23;;;;;;;47.08;29.13;;;;;;;;;;5086160;28;20021;-70
2023/03/05 14:32:18;;;;;;;48.05;29.30;;;;;;;;;;5095052;28;20031;-68
2023/03/05 14:35:04;;;;;;;48.90;29.13;;;;;;;;;;5093916;28;20040;-69
2023/03/05 14:37:51;;;;;;;42.83;27.85;;;;;;;;;;5083714;28;20031;-70
2023/03/05 14:40:36;;;;;;;44.30;27.90;;;;;;;;;;5066991;28;20091;-68
2023/03/05 14:43:22;;;;;;;52.90;30.58;;;;;;;;;;5083767;28;20028;-69
2023/03/05 14:46:08;;;;;;;51.80;30.20;;;;;;;;;;5093370;28;20024;-70
2023/03/05 14:48:53;;;;;;;43.28;28.42;;;;;;;;;;5084034;28;20058;-70
2023/03/05 14:51:41;;;;;;;50.40;30.13;;;;;;;;;;5082219;28;20464;-71
2023/03/05 14:54:26;;;;;;;47.17;29.27;;;;;;;;;;5064215;28;20399;-69
2023/03/05 14:57:17;;;;;;;48.25;29.95;;;;;;;;;;5086156;28;20425;-70
2023/03/05 15:00:03;;;;;;;48.72;29.23;;;;;;;;;;5092339;28;20106;-70
2023/03/05 15:02:49;;;;;;;46.85;28.70;;;;;;;;;;5083133;28;20020;-70
2023/03/05 15:05:35;;;;;;;46.53;28.55;;;;;;;;;;5081880;28;20020;-70
2023/03/05 15:08:25;;;;;;;51.03;30.88;;;;;;;;;;5092487;28;20016;-70
2023/03/05 15:11:11;;;;;;;47.55;29.83;;;;;;;;;;5085626;28;20016;-70
2023/03/05 15:13:57;;;;;;;53.35;30.70;;;;;;;;;;5064642;28;20028;-70
2023/03/05 15:16:44;;;;;;;51.00;30.58;;;;;;;;;;5068109;28;20364;-71
2023/03/05 15:19:29;;;;;;;48.22;28.95;;;;;;;;;;5081968;28;20033;-69
2023/03/05 15:22:15;;;;;;;47.28;29.38;;;;;;;;;;5087147;28;20114;-69
2023/03/05 15:25:01;;;;;;;46.15;28.83;;;;;;;;;;5086041;28;20024;-70
2023/03/05 15:27:47;;;;;;;48.92;29.38;;;;;;;;;;5075524;28;20012;-71
2023/03/05 15:30:34;;;;;;;48.50;29.98;;;;;;;;;;5089821;28;20143;-71
2023/03/05 15:33:21;;;;;;;47.20;29.40;;;;;;;;;;5086330;28;20020;-70
2023/03/05 15:36:08;;;;;;;50.25;30.73;;;;;;;;;;5062881;28;20037;-70
2023/03/05 15:38:54;;;;;;;48.28;30.23;;;;;;;;;;5086771;28;20048;-70
2023/03/05 15:41:40;;;;;;;49.42;30.52;;;;;;;;;;5088910;28;20020;-70
2023/03/05 15:44:26;;;;;;;53.72;31.48;;;;;;;;;;5048052;28;20454;-71
2023/03/05 15:47:11;;;;;;;47.58;30.20;;;;;;;;;;5085212;28;20021;-71
2023/03/05 15:49:57;;;;;;;56.15;32.97;;;;;;;;;;5091323;28;20020;-71
2023/03/05 15:52:43;;;;;;;51.10;32.47;;;;;;;;;;5088029;28;20020;-70
2023/03/05 15:55:28;;;;;;;57.22;33.95;;;;;;;;;;5088003;28;20024;-70
2023/03/05 15:58:15;;;;;;;51.13;32.53;;;;;;;;;;5075324;28;20083;-70
2023/03/05 16:01:01;;;;;;;54.70;32.70;;;;;;;;;;5060016;28;20056;-71
2023/03/05 16:03:46;;;;;;;61.63;35.63;;;;;;;;;;5075051;28;20085;-71
2023/03/05 16:06:32;;;;;;;58.85;36.05;;;;;;;;;;5063402;28;20013;-70
2023/03/05 16:09:19;;;;;;;59.35;34.20;;;;;;;;;;5083062;28;20452;-70
2023/03/05 16:12:07;;;;;;;66.65;36.58;;;;;;;;;;5091789;28;20032;-70
2023/03/05 16:14:53;;;;;;;59.13;36.10;;;;;;;;;;5081899;28;20031;-69